sensor_id;sensor_type;location;lat;lon;timestamp;pressure;altitude;pressure_sealevel;temperature;humidity
36222;BME280;22266;52.340;4.962;2023-04-06T00:00:07;101785.88;;;8.37;49.71
36222;BME280;22266;52.340;4.962;2023-04-06T00:02:36;101785.88;;;8.37;49.30
36222;BME280;22266;52.340;4.962;2023-04-06T00:05:03;101781.47;;;8.36;48.85
36222;BME280;22266;52.340;4.962;2023-04-06T00:07:29;101778.78;;;8.36;49.16
36222;BME280;22266;52.340;4.962;2023-04-06T00:09:56;101782.34;;;8.37;48.71
36222;BME280;22266;52.340;4.962;2023-04-06T00:12:22;101775.03;;;8.29;48.88
36222;BME280;22266;52.340;4.962;2023-04-06T00:14:50;101768.47;;;8.24;49.03
36222;BME280;22266;52.340;4.962;2023-04-06T00:17:17;101772.00;;;8.24;48.39
36222;BME280;22266;52.340;4.962;2023-04-06T00:19:43;101773.69;;;8.25;48.63
36222;BME280;22266;52.340;4.962;2023-04-06T00:22:10;101769.31;;;8.24;49.62
36222;BME280;22266;52.340;4.962;2023-04-06T00:24:37;101756.84;;;8.15;49.29
36222;BME280;22266;52.340;4.962;2023-04-06T00:27:03;101764.19;;;8.13;49.71
36222;BME280;22266;52.340;4.962;2023-04-06T00:29:30;101755.00;;;8.15;48.76
36222;BME280;22266;52.340;4.962;2023-04-06T00:31:56;101751.50;;;8.15;49.11
36222;BME280;22266;52.340;4.962;2023-04-06T00:34:22;101745.97;;;8.16;49.56
36222;BME280;22266;52.340;4.962;2023-04-06T00:36:49;101748.47;;;8.18;48.55
36222;BME280;22266;52.340;4.962;2023-04-06T00:39:15;101747.81;;;8.16;48.92
36222;BME280;22266;52.340;4.962;2023-04-06T00:41:49;101750.78;;;8.13;49.09
36222;BME280;22266;52.340;4.962;2023-04-06T00:44:17;101739.00;;;8.06;48.59
36222;BME280;22266;52.340;4.962;2023-04-06T00:46:44;101742.00;;;8.03;49.24
36222;BME280;22266;52.340;4.962;2023-04-06T00:49:11;101736.47;;;8.04;49.22
36222;BME280;22266;52.340;4.962;2023-04-06T00:51:37;101730.44;;;8.02;49.01
36222;BME280;22266;52.340;4.962;2023-04-06T00:54:04;101731.59;;;8.00;48.72
36222;BME280;22266;52.340;4.962;2023-04-06T00:56:33;101729.91;;;7.99;48.99
36222;BME280;22266;52.340;4.962;2023-04-06T00:59:00;101728.38;;;7.96;48.92
36222;BME280;22266;52.340;4.962;2023-04-06T01:01:27;101724.16;;;7.93;48.21
36222;BME280;22266;52.340;4.962;2023-04-06T01:03:58;101717.13;;;7.92;48.57
36222;BME280;22266;52.340;4.962;2023-04-06T01:06:25;101711.38;;;7.87;48.62
36222;BME280;22266;52.340;4.962;2023-04-06T01:09:00;101704.78;;;7.82;48.57
36222;BME280;22266;52.340;4.962;2023-04-06T01:11:28;101705.66;;;7.82;48.74
36222;BME280;22266;52.340;4.962;2023-04-06T01:13:55;101706.31;;;7.84;47.93
36222;BME280;22266;52.340;4.962;2023-04-06T01:16:27;101702.81;;;7.84;48.32
36222;BME280;22266;52.340;4.962;2023-04-06T01:19:09;101696.59;;;7.83;48.49
36222;BME280;22266;52.340;4.962;2023-04-06T01:21:40;101694.22;;;7.80;48.65
36222;BME280;22266;52.340;4.962;2023-04-06T01:24:22;101695.38;;;7.78;48.11
36222;BME280;22266;52.340;4.962;2023-04-06T01:27:07;101695.53;;;7.76;48.31
36222;BME280;22266;52.340;4.962;2023-04-06T01:29:43;101689.81;;;7.71;48.35
36222;BME280;22266;52.340;4.962;2023-04-06T01:32:17;101691.00;;;7.77;48.99
36222;BME280;22266;52.340;4.962;2023-04-06T01:34:48;101688.97;;;7.71;48.21
36222;BME280;22266;52.340;4.962;2023-04-06T01:37:15;101679.38;;;7.68;48.26
36222;BME280;22266;52.340;4.962;2023-04-06T01:39:43;101677.41;;;7.70;48.26
36222;BME280;22266;52.340;4.962;2023-04-06T01:42:14;101672.19;;;7.68;47.91
36222;BME280;22266;52.340;4.962;2023-04-06T01:44:40;101666.16;;;7.66;47.81
36222;BME280;22266;52.340;4.962;2023-04-06T01:47:12;101659.63;;;7.69;47.95
36222;BME280;22266;52.340;4.962;2023-04-06T01:49:39;101658.97;;;7.67;47.76
36222;BME280;22266;52.340;4.962;2023-04-06T01:52:06;101658.97;;;7.67;48.43
36222;BME280;22266;52.340;4.962;2023-04-06T01:54:35;101658.97;;;7.67;48.30
36222;BME280;22266;52.340;4.962;2023-04-06T01:57:19;101655.56;;;7.65;48.53
36222;BME280;22266;52.340;4.962;2023-04-06T01:59:52;101657.28;;;7.66;48.38
36222;BME280;22266;52.340;4.962;2023-04-06T02:02:28;101660.63;;;7.68;48.67
36222;BME280;22266;52.340;4.962;2023-04-06T02:05:02;101649.75;;;7.69;48.22
36222;BME280;22266;52.340;4.962;2023-04-06T02:07:29;101642.34;;;7.63;49.04
36222;BME280;22266;52.340;4.962;2023-04-06T02:09:56;101640.44;;;7.56;48.37
36222;BME280;22266;52.340;4.962;2023-04-06T02:12:31;101643.13;;;7.56;49.45
36222;BME280;22266;52.340;4.962;2023-04-06T02:14:57;101637.75;;;7.56;49.17
36222;BME280;22266;52.340;4.962;2023-04-06T02:17:24;101634.06;;;7.57;49.00
36222;BME280;22266;52.340;4.962;2023-04-06T02:19:50;101632.22;;;7.57;48.91
36222;BME280;22266;52.340;4.962;2023-04-06T02:22:17;101632.41;;;7.56;49.22
36222;BME280;22266;52.340;4.962;2023-04-06T02:24:44;101630.56;;;7.56;49.77
36222;BME280;22266;52.340;4.962;2023-04-06T02:27:10;101621.38;;;7.59;49.38
36222;BME280;22266;52.340;4.962;2023-04-06T02:29:37;101623.88;;;7.60;48.99
36222;BME280;22266;52.340;4.962;2023-04-06T02:32:03;101612.97;;;7.54;49.64
36222;BME280;22266;52.340;4.962;2023-04-06T02:34:31;101622.81;;;7.53;49.49
36222;BME280;22266;52.340;4.962;2023-04-06T02:36:58;101622.16;;;7.51;49.50
36222;BME280;22266;52.340;4.962;2023-04-06T02:39:25;101624.81;;;7.51;49.61
36222;BME280;22266;52.340;4.962;2023-04-06T02:41:52;101620.63;;;7.49;49.65
36222;BME280;22266;52.340;4.962;2023-04-06T02:44:22;101624.28;;;7.48;49.24
36222;BME280;22266;52.340;4.962;2023-04-06T02:46:48;101616.03;;;7.41;49.53
36222;BME280;22266;52.340;4.962;2023-04-06T02:49:14;101609.81;;;7.40;49.71
36222;BME280;22266;52.340;4.962;2023-04-06T02:51:44;101607.16;;;7.40;49.74
36222;BME280;22266;52.340;4.962;2023-04-06T02:54:17;101608.69;;;7.43;50.00
36222;BME280;22266;52.340;4.962;2023-04-06T02:56:43;101603.50;;;7.41;49.94
36222;BME280;22266;52.340;4.962;2023-04-06T02:59:11;101601.50;;;7.43;49.94
36222;BME280;22266;52.340;4.962;2023-04-06T03:01:42;101591.78;;;7.42;49.88
36222;BME280;22266;52.340;4.962;2023-04-06T03:04:08;101591.78;;;7.42;49.59
36222;BME280;22266;52.340;4.962;2023-04-06T03:06:35;101588.41;;;7.40;49.74
36222;BME280;22266;52.340;4.962;2023-04-06T03:09:11;101575.34;;;7.37;49.86
36222;BME280;22266;52.340;4.962;2023-04-06T03:11:40;101580.22;;;7.42;50.19
36222;BME280;22266;52.340;4.962;2023-04-06T03:14:07;101575.84;;;7.41;49.75
36222;BME280;22266;52.340;4.962;2023-04-06T03:16:33;101577.16;;;7.37;49.82
36222;BME280;22266;52.340;4.962;2023-04-06T03:19:01;101570.00;;;7.37;50.20
36222;BME280;22266;52.340;4.962;2023-04-06T03:21:31;101567.69;;;7.42;50.65
36222;BME280;22266;52.340;4.962;2023-04-06T03:23:58;101571.03;;;7.44;49.45
36222;BME280;22266;52.340;4.962;2023-04-06T03:26:26;101567.69;;;7.42;50.02
36222;BME280;22266;52.340;4.962;2023-04-06T03:28:52;101565.13;;;7.41;50.19
36222;BME280;22266;52.340;4.962;2023-04-06T03:31:23;101561.72;;;7.31;50.12
36222;BME280;22266;52.340;4.962;2023-04-06T03:33:57;101561.88;;;7.29;50.35
36222;BME280;22266;52.340;4.962;2023-04-06T03:36:29;101560.59;;;7.33;50.65
36222;BME280;22266;52.340;4.962;2023-04-06T03:38:57;101553.53;;;7.32;50.05
36222;BME280;22266;52.340;4.962;2023-04-06T03:41:23;101557.75;;;7.35;50.75
36222;BME280;22266;52.340;4.962;2023-04-06T03:44:00;101561.41;;;7.34;50.26
36222;BME280;22266;52.340;4.962;2023-04-06T03:46:26;101557.56;;;7.36;50.58
36222;BME280;22266;52.340;4.962;2023-04-06T03:48:56;101557.25;;;7.39;50.12
36222;BME280;22266;52.340;4.962;2023-04-06T03:51:23;101550.22;;;7.38;50.28
36222;BME280;22266;52.340;4.962;2023-04-06T03:53:49;101548.22;;;7.40;50.20
36222;BME280;22266;52.340;4.962;2023-04-06T03:56:16;101555.28;;;7.41;50.74
36222;BME280;22266;52.340;4.962;2023-04-06T03:58:42;101548.75;;;7.44;50.62
36222;BME280;22266;52.340;4.962;2023-04-06T04:01:11;101544.56;;;7.41;50.41
36222;BME280;22266;52.340;4.962;2023-04-06T04:03:38;101547.38;;;7.40;51.13
36222;BME280;22266;52.340;4.962;2023-04-06T04:06:05;101547.25;;;7.41;50.97
36222;BME280;22266;52.340;4.962;2023-04-06T04:08:32;101546.38;;;7.41;50.82
36222;BME280;22266;52.340;4.962;2023-04-06T04:11:00;101538.81;;;7.36;51.09
36222;BME280;22266;52.340;4.962;2023-04-06T04:13:27;101539.34;;;7.40;51.52
36222;BME280;22266;52.340;4.962;2023-04-06T04:15:55;101546.56;;;7.39;51.72
36222;BME280;22266;52.340;4.962;2023-04-06T04:18:21;101538.22;;;7.42;51.91
36222;BME280;22266;52.340;4.962;2023-04-06T04:20:48;101535.53;;;7.42;51.63
36222;BME280;22266;52.340;4.962;2023-04-06T04:23:14;101531.84;;;7.43;51.72
36222;BME280;22266;52.340;4.962;2023-04-06T04:25:41;101542.03;;;7.40;52.31
36222;BME280;22266;52.340;4.962;2023-04-06T04:28:07;101540.66;;;7.36;52.07
36222;BME280;22266;52.340;4.962;2023-04-06T04:30:36;101533.47;;;7.36;52.30
36222;BME280;22266;52.340;4.962;2023-04-06T04:33:07;101535.78;;;7.31;52.27
36222;BME280;22266;52.340;4.962;2023-04-06T04:35:34;101536.63;;;7.32;52.79
36222;BME280;22266;52.340;4.962;2023-04-06T04:38:00;101537.44;;;7.32;52.04
36222;BME280;22266;52.340;4.962;2023-04-06T04:40:27;101531.44;;;7.30;52.10
36222;BME280;22266;52.340;4.962;2023-04-06T04:43:02;101530.41;;;7.31;52.74
36222;BME280;22266;52.340;4.962;2023-04-06T04:45:32;101528.75;;;7.30;52.70
36222;BME280;22266;52.340;4.962;2023-04-06T04:48:05;101530.59;;;7.30;52.63
36222;BME280;22266;52.340;4.962;2023-04-06T04:50:44;101526.06;;;7.30;52.63
36222;BME280;22266;52.340;4.962;2023-04-06T04:53:12;101525.38;;;7.28;52.68
36222;BME280;22266;52.340;4.962;2023-04-06T04:55:40;101522.84;;;7.27;52.55
36222;BME280;22266;52.340;4.962;2023-04-06T04:58:08;101521.03;;;7.27;53.25
36222;BME280;22266;52.340;4.962;2023-04-06T05:00:57;101521.50;;;7.23;52.71
36222;BME280;22266;52.340;4.962;2023-04-06T05:03:26;101519.88;;;7.12;52.98
36222;BME280;22266;52.340;4.962;2023-04-06T05:06:05;101519.06;;;7.11;54.60
36222;BME280;22266;52.340;4.962;2023-04-06T05:08:35;101523.28;;;7.14;54.31
36222;BME280;22266;52.340;4.962;2023-04-06T05:11:02;101518.59;;;7.16;53.50
36222;BME280;22266;52.340;4.962;2023-04-06T05:13:33;101521.13;;;7.17;53.35
36222;BME280;22266;52.340;4.962;2023-04-06T05:16:05;101515.59;;;7.19;53.54
36222;BME280;22266;52.340;4.962;2023-04-06T05:18:33;101520.13;;;7.18;53.42
36222;BME280;22266;52.340;4.962;2023-04-06T05:21:01;101520.13;;;7.18;53.00
36222;BME280;22266;52.340;4.962;2023-04-06T05:23:47;101516.31;;;7.21;53.57
36222;BME280;22266;52.340;4.962;2023-04-06T05:26:14;101513.94;;;7.18;53.32
36222;BME280;22266;52.340;4.962;2023-04-06T05:28:41;101513.41;;;7.14;53.30
36222;BME280;22266;52.340;4.962;2023-04-06T05:31:09;101516.91;;;7.15;54.25
36222;BME280;22266;52.340;4.962;2023-04-06T05:33:44;101517.56;;;7.17;53.91
36222;BME280;22266;52.340;4.962;2023-04-06T05:36:14;101513.94;;;7.18;53.37
36222;BME280;22266;52.340;4.962;2023-04-06T05:38:43;101518.28;;;7.19;53.59
36222;BME280;22266;52.340;4.962;2023-04-06T05:41:30;101512.75;;;7.21;53.38
36222;BME280;22266;52.340;4.962;2023-04-06T05:43:57;101510.78;;;7.23;53.82
36222;BME280;22266;52.340;4.962;2023-04-06T05:46:24;101508.41;;;7.19;53.37
36222;BME280;22266;52.340;4.962;2023-04-06T05:48:53;101514.75;;;7.18;53.05
36222;BME280;22266;52.340;4.962;2023-04-06T05:51:23;101512.75;;;7.21;53.88
36222;BME280;22266;52.340;4.962;2023-04-06T05:53:51;101508.94;;;7.23;53.65
36222;BME280;22266;52.340;4.962;2023-04-06T05:56:17;101512.44;;;7.24;54.26
36222;BME280;22266;52.340;4.962;2023-04-06T05:58:44;101505.78;;;7.28;54.66
36222;BME280;22266;52.340;4.962;2023-04-06T06:01:14;101512.97;;;7.27;53.94
36222;BME280;22266;52.340;4.962;2023-04-06T06:03:45;101512.81;;;7.29;53.93
36222;BME280;22266;52.340;4.962;2023-04-06T06:06:11;101516.19;;;7.31;54.64
36222;BME280;22266;52.340;4.962;2023-04-06T06:08:54;101518.69;;;7.32;54.38
36222;BME280;22266;52.340;4.962;2023-04-06T06:11:21;101512.75;;;7.38;54.04
36222;BME280;22266;52.340;4.962;2023-04-06T06:13:48;101509.75;;;7.41;54.04
36222;BME280;22266;52.340;4.962;2023-04-06T06:16:15;101513.47;;;7.49;54.37
36222;BME280;22266;52.340;4.962;2023-04-06T06:18:45;101506.25;;;7.49;53.95
36222;BME280;22266;52.340;4.962;2023-04-06T06:21:12;101509.41;;;7.44;53.76
36222;BME280;22266;52.340;4.962;2023-04-06T06:23:39;101503.56;;;7.49;53.57
36222;BME280;22266;52.340;4.962;2023-04-06T06:26:06;101507.47;;;7.55;53.13
36222;BME280;22266;52.340;4.962;2023-04-06T06:28:32;101511.88;;;7.64;53.30
36222;BME280;22266;52.340;4.962;2023-04-06T06:30:59;101509.44;;;7.71;53.46
36222;BME280;22266;52.340;4.962;2023-04-06T06:33:25;101500.06;;;7.75;53.69
36222;BME280;22266;52.340;4.962;2023-04-06T06:35:54;101507.09;;;7.76;53.63
36222;BME280;22266;52.340;4.962;2023-04-06T06:38:20;101506.09;;;7.77;53.04
36222;BME280;22266;52.340;4.962;2023-04-06T06:40:49;101511.63;;;7.75;53.30
36222;BME280;22266;52.340;4.962;2023-04-06T06:43:16;101510.44;;;7.78;53.87
36222;BME280;22266;52.340;4.962;2023-04-06T06:45:49;101509.47;;;7.79;53.39
36222;BME280;22266;52.340;4.962;2023-04-06T06:48:16;101501.94;;;7.82;53.30
36222;BME280;22266;52.340;4.962;2023-04-06T06:50:42;101501.47;;;7.87;53.35
36222;BME280;22266;52.340;4.962;2023-04-06T06:53:12;101495.78;;;7.90;54.17
36222;BME280;22266;52.340;4.962;2023-04-06T06:55:38;101507.69;;;7.96;54.16
36222;BME280;22266;52.340;4.962;2023-04-06T06:58:05;101498.34;;;8.00;53.73
36222;BME280;22266;52.340;4.962;2023-04-06T07:00:32;101502.69;;;8.01;53.15
36222;BME280;22266;52.340;4.962;2023-04-06T07:02:59;101490.28;;;8.00;53.21
36222;BME280;22266;52.340;4.962;2023-04-06T07:05:26;101499.97;;;7.92;53.67
36222;BME280;22266;52.340;4.962;2023-04-06T07:07:56;101497.28;;;7.92;53.45
36222;BME280;22266;52.340;4.962;2023-04-06T07:10:24;101486.88;;;7.89;54.23
36222;BME280;22266;52.340;4.962;2023-04-06T07:12:52;101485.06;;;7.90;54.25
36222;BME280;22266;52.340;4.962;2023-04-06T07:15:18;101483.06;;;7.92;53.85
36222;BME280;22266;52.340;4.962;2023-04-06T07:17:45;101488.41;;;7.92;54.18
36222;BME280;22266;52.340;4.962;2023-04-06T07:20:12;101483.53;;;7.87;53.97
36222;BME280;22266;52.340;4.962;2023-04-06T07:22:39;101481.69;;;7.88;54.14
36222;BME280;22266;52.340;4.962;2023-04-06T07:25:07;101488.94;;;7.96;54.38
36222;BME280;22266;52.340;4.962;2023-04-06T07:27:33;101481.94;;;8.03;54.12
36222;BME280;22266;52.340;4.962;2023-04-06T07:30:01;101483.59;;;8.04;54.45
36222;BME280;22266;52.340;4.962;2023-04-06T07:32:27;101484.25;;;8.06;54.98
36222;BME280;22266;52.340;4.962;2023-04-06T07:34:54;101478.91;;;8.06;54.70
36222;BME280;22266;52.340;4.962;2023-04-06T07:37:21;101475.22;;;7.99;54.51
36222;BME280;22266;52.340;4.962;2023-04-06T07:39:48;101484.75;;;8.01;54.63
36222;BME280;22266;52.340;4.962;2023-04-06T07:42:17;101480.22;;;8.02;54.69
36222;BME280;22266;52.340;4.962;2023-04-06T07:44:44;101480.91;;;8.04;54.82
36222;BME280;22266;52.340;4.962;2023-04-06T07:47:10;101479.91;;;8.05;55.11
36222;BME280;22266;52.340;4.962;2023-04-06T07:49:37;101480.13;;;8.11;55.21
36222;BME280;22266;52.340;4.962;2023-04-06T07:52:04;101482.09;;;8.09;55.65
36222;BME280;22266;52.340;4.962;2023-04-06T07:54:32;101481.28;;;8.09;55.78
36222;BME280;22266;52.340;4.962;2023-04-06T07:56:58;101478.78;;;8.15;55.04
36222;BME280;22266;52.340;4.962;2023-04-06T07:59:25;101483.84;;;8.18;55.49
36222;BME280;22266;52.340;4.962;2023-04-06T08:01:52;101472.63;;;8.23;55.98
36222;BME280;22266;52.340;4.962;2023-04-06T08:04:19;101479.47;;;8.26;55.29
36222;BME280;22266;52.340;4.962;2023-04-06T08:06:46;101473.97;;;8.27;56.12
36222;BME280;22266;52.340;4.962;2023-04-06T08:09:13;101477.00;;;8.32;55.59
36222;BME280;22266;52.340;4.962;2023-04-06T08:11:39;101461.25;;;8.37;55.78
36222;BME280;22266;52.340;4.962;2023-04-06T08:14:06;101469.31;;;8.46;55.82
36222;BME280;22266;52.340;4.962;2023-04-06T08:16:33;101477.38;;;8.54;55.51
36222;BME280;22266;52.340;4.962;2023-04-06T08:19:00;101468.84;;;8.58;55.48
36222;BME280;22266;52.340;4.962;2023-04-06T08:21:26;101470.88;;;8.64;56.06
36222;BME280;22266;52.340;4.962;2023-04-06T08:23:52;101463.16;;;8.70;55.14
36222;BME280;22266;52.340;4.962;2023-04-06T08:26:19;101465.19;;;8.76;55.83
36222;BME280;22266;52.340;4.962;2023-04-06T08:28:46;101471.06;;;8.79;55.85
36222;BME280;22266;52.340;4.962;2023-04-06T08:31:12;101470.19;;;8.79;55.90
36222;BME280;22266;52.340;4.962;2023-04-06T08:33:39;101473.75;;;8.79;55.99
36222;BME280;22266;52.340;4.962;2023-04-06T08:38:36;101468.38;;;8.87;55.95
36222;BME280;22266;52.340;4.962;2023-04-06T08:41:12;101470.06;;;8.88;57.07
36222;BME280;22266;52.340;4.962;2023-04-06T08:43:43;101472.41;;;8.91;57.41
36222;BME280;22266;52.340;4.962;2023-04-06T08:46:11;101463.50;;;8.91;57.03
36222;BME280;22266;52.340;4.962;2023-04-06T08:48:41;101462.31;;;8.94;57.38
36222;BME280;22266;52.340;4.962;2023-04-06T08:51:11;101466.16;;;8.99;57.56
36222;BME280;22266;52.340;4.962;2023-04-06T08:53:38;101475.94;;;9.00;57.20
36222;BME280;22266;52.340;4.962;2023-04-06T08:56:05;101474.06;;;9.01;57.54
36222;BME280;22266;52.340;4.962;2023-04-06T08:58:35;101473.38;;;9.07;58.27
36222;BME280;22266;52.340;4.962;2023-04-06T09:01:09;101469.72;;;9.16;57.88
36222;BME280;22266;52.340;4.962;2023-04-06T09:03:38;101466.31;;;9.22;58.13
36222;BME280;22266;52.340;4.962;2023-04-06T09:06:07;101463.31;;;9.25;57.52
36222;BME280;22266;52.340;4.962;2023-04-06T09:08:35;101472.38;;;9.32;58.06
36222;BME280;22266;52.340;4.962;2023-04-06T09:11:03;101471.53;;;9.32;58.11
36222;BME280;22266;52.340;4.962;2023-04-06T09:13:30;101469.31;;;9.35;58.72
36222;BME280;22266;52.340;4.962;2023-04-06T09:16:02;101473.53;;;9.38;59.64
36222;BME280;22266;52.340;4.962;2023-04-06T09:18:32;101472.00;;;9.35;60.28
36222;BME280;22266;52.340;4.962;2023-04-06T09:21:05;101474.56;;;9.29;60.81
36222;BME280;22266;52.340;4.962;2023-04-06T09:23:33;101478.91;;;9.30;61.40
36222;BME280;22266;52.340;4.962;2023-04-06T09:26:15;101481.91;;;9.35;61.68
36222;BME280;22266;52.340;4.962;2023-04-06T09:28:50;101478.56;;;9.33;61.84
36222;BME280;22266;52.340;4.962;2023-04-06T09:31:24;101477.41;;;9.27;62.44
36222;BME280;22266;52.340;4.962;2023-04-06T09:33:51;101478.09;;;9.13;62.05
36222;BME280;22266;52.340;4.962;2023-04-06T09:36:29;101482.13;;;9.17;63.09
36222;BME280;22266;52.340;4.962;2023-04-06T09:38:59;101484.47;;;9.12;63.15
36222;BME280;22266;52.340;4.962;2023-04-06T09:41:28;101484.47;;;9.12;63.64
36222;BME280;22266;52.340;4.962;2023-04-06T09:44:11;101476.75;;;9.09;63.49
36222;BME280;22266;52.340;4.962;2023-04-06T09:46:42;101486.31;;;9.11;63.84
36222;BME280;22266;52.340;4.962;2023-04-06T09:49:30;101478.44;;;9.10;64.30
36222;BME280;22266;52.340;4.962;2023-04-06T09:52:03;101479.13;;;9.12;64.46
36222;BME280;22266;52.340;4.962;2023-04-06T09:54:30;101485.81;;;9.16;64.84
36222;BME280;22266;52.340;4.962;2023-04-06T10:05:05;101481.44;;;9.15;66.20
36222;BME280;22266;52.340;4.962;2023-04-06T10:07:35;101470.38;;;9.10;67.15
36222;BME280;22266;52.340;4.962;2023-04-06T10:10:22;101476.44;;;9.04;67.50
36222;BME280;22266;52.340;4.962;2023-04-06T10:12:48;101467.88;;;9.00;67.49
36222;BME280;22266;52.340;4.962;2023-04-06T10:15:16;101471.53;;;9.07;67.80
36222;BME280;22266;52.340;4.962;2023-04-06T10:17:46;101474.41;;;9.06;67.18
36222;BME280;22266;52.340;4.962;2023-04-06T10:20:22;101469.22;;;8.96;67.95
36222;BME280;22266;52.340;4.962;2023-04-06T10:23:04;101464.00;;;8.95;67.70
36222;BME280;22266;52.340;4.962;2023-04-06T10:25:32;101470.38;;;9.02;68.10
36222;BME280;22266;52.340;4.962;2023-04-06T10:28:05;101457.63;;;9.12;67.60
36222;BME280;22266;52.340;4.962;2023-04-06T10:30:33;101457.78;;;9.19;67.75
36222;BME280;22266;52.340;4.962;2023-04-06T10:33:00;101461.13;;;9.21;68.12
36222;BME280;22266;52.340;4.962;2023-04-06T10:35:37;101459.78;;;9.25;67.59
36222;BME280;22266;52.340;4.962;2023-04-06T10:38:06;101452.25;;;9.12;67.59
36222;BME280;22266;52.340;4.962;2023-04-06T10:40:38;101457.44;;;9.05;67.62
36222;BME280;22266;52.340;4.962;2023-04-06T10:43:12;101453.75;;;9.14;68.16
36222;BME280;22266;52.340;4.962;2023-04-06T10:45:40;101444.53;;;9.09;68.02
36222;BME280;22266;52.340;4.962;2023-04-06T10:48:14;101446.53;;;9.15;68.43
36222;BME280;22266;52.340;4.962;2023-04-06T10:50:44;101441.66;;;9.19;68.25
36222;BME280;22266;52.340;4.962;2023-04-06T10:53:11;101444.84;;;9.14;67.96
36222;BME280;22266;52.340;4.962;2023-04-06T10:55:39;101433.44;;;9.20;68.93
36222;BME280;22266;52.340;4.962;2023-04-06T10:58:07;101436.47;;;9.17;68.98
36222;BME280;22266;52.340;4.962;2023-04-06T11:00:35;101434.44;;;9.11;69.35
36222;BME280;22266;52.340;4.962;2023-04-06T11:03:15;101426.88;;;9.14;69.59
36222;BME280;22266;52.340;4.962;2023-04-06T11:05:47;101424.69;;;9.18;69.66
36222;BME280;22266;52.340;4.962;2023-04-06T11:08:33;101429.56;;;9.14;69.98
36222;BME280;22266;52.340;4.962;2023-04-06T11:11:11;101431.75;;;9.11;69.36
36222;BME280;22266;52.340;4.962;2023-04-06T11:13:55;101417.50;;;9.02;70.27
36222;BME280;22266;52.340;4.962;2023-04-06T11:16:24;101419.03;;;8.97;70.86
36222;BME280;22266;52.340;4.962;2023-04-06T11:18:59;101417.50;;;9.02;71.17
36222;BME280;22266;52.340;4.962;2023-04-06T11:21:34;101413.31;;;9.08;71.35
36222;BME280;22266;52.340;4.962;2023-04-06T11:29:12;101420.50;;;9.07;71.78
36222;BME280;22266;52.340;4.962;2023-04-06T11:31:40;101403.94;;;9.04;71.79
36222;BME280;22266;52.340;4.962;2023-04-06T11:34:12;101406.63;;;9.04;71.81
36222;BME280;22266;52.340;4.962;2023-04-06T11:36:41;101407.09;;;9.07;71.94
36222;BME280;22266;52.340;4.962;2023-04-06T11:39:09;101402.41;;;9.09;72.84
36222;BME280;22266;52.340;4.962;2023-04-06T11:41:36;101401.56;;;9.09;73.36
36222;BME280;22266;52.340;4.962;2023-04-06T11:44:03;101396.34;;;9.15;73.29
36222;BME280;22266;52.340;4.962;2023-04-06T11:46:31;101400.22;;;9.13;73.38
36222;BME280;22266;52.340;4.962;2023-04-06T11:49:00;101398.88;;;9.09;73.82
36222;BME280;22266;52.340;4.962;2023-04-06T11:51:27;101391.31;;;9.12;73.93
36222;BME280;22266;52.340;4.962;2023-04-06T11:53:54;101390.97;;;9.07;73.77
36222;BME280;22266;52.340;4.962;2023-04-06T11:56:26;101393.00;;;8.97;74.20
36222;BME280;22266;52.340;4.962;2023-04-06T11:58:55;101382.78;;;9.01;74.96
36222;BME280;22266;52.340;4.962;2023-04-06T12:01:23;101390.31;;;9.05;74.98
36222;BME280;22266;52.340;4.962;2023-04-06T12:03:50;101391.34;;;9.04;75.33
36222;BME280;22266;52.340;4.962;2023-04-06T12:06:17;101401.72;;;8.99;75.49
36222;BME280;22266;52.340;4.962;2023-04-06T12:08:44;101389.81;;;9.02;75.43
36222;BME280;22266;52.340;4.962;2023-04-06T12:11:11;101388.16;;;9.01;75.93
36222;BME280;22266;52.340;4.962;2023-04-06T12:13:38;101381.47;;;8.88;75.19
36222;BME280;22266;52.340;4.962;2023-04-06T12:16:05;101380.63;;;8.80;76.00
36222;BME280;22266;52.340;4.962;2023-04-06T12:18:32;101383.31;;;8.88;76.25
36222;BME280;22266;52.340;4.962;2023-04-06T12:20:58;101382.63;;;8.86;76.12
36222;BME280;22266;52.340;4.962;2023-04-06T12:23:24;101381.78;;;8.77;76.21
36222;BME280;22266;52.340;4.962;2023-04-06T12:25:51;101376.09;;;8.80;77.14
36222;BME280;22266;52.340;4.962;2023-04-06T12:28:17;101378.78;;;8.72;76.62
36222;BME280;22266;52.340;4.962;2023-04-06T12:30:46;101375.91;;;8.74;78.03
36222;BME280;22266;52.340;4.962;2023-04-06T12:33:13;101372.06;;;8.76;77.43
36222;BME280;22266;52.340;4.962;2023-04-06T12:35:39;101365.69;;;8.77;77.37
36222;BME280;22266;52.340;4.962;2023-04-06T12:38:06;101366.38;;;8.79;77.65
36222;BME280;22266;52.340;4.962;2023-04-06T12:40:36;101374.44;;;8.79;78.35
36222;BME280;22266;52.340;4.962;2023-04-06T12:43:03;101364.66;;;8.86;78.36
36222;BME280;22266;52.340;4.962;2023-04-06T12:45:30;101359.47;;;8.85;78.07
36222;BME280;22266;52.340;4.962;2023-04-06T12:47:58;101364.16;;;8.83;78.15
36222;BME280;22266;52.340;4.962;2023-04-06T12:50:24;101360.00;;;8.80;77.98
36222;BME280;22266;52.340;4.962;2023-04-06T12:52:51;101354.44;;;8.90;78.52
36222;BME280;22266;52.340;4.962;2023-04-06T12:55:18;101361.13;;;9.02;79.19
36222;BME280;22266;52.340;4.962;2023-04-06T12:57:44;101354.06;;;9.01;77.35
36222;BME280;22266;52.340;4.962;2023-04-06T13:00:12;101351.25;;;8.86;78.59
36222;BME280;22266;52.340;4.962;2023-04-06T13:02:39;101349.25;;;8.80;78.47
36222;BME280;22266;52.340;4.962;2023-04-06T13:05:05;101354.44;;;8.82;78.74
36222;BME280;22266;52.340;4.962;2023-04-06T13:07:32;101355.78;;;8.86;78.65
36222;BME280;22266;52.340;4.962;2023-04-06T13:09:58;101348.06;;;8.83;78.21
36222;BME280;22266;52.340;4.962;2023-04-06T13:12:25;101338.50;;;8.80;78.55
36222;BME280;22266;52.340;4.962;2023-04-06T13:14:52;101346.56;;;8.88;79.10
36222;BME280;22266;52.340;4.962;2023-04-06T13:17:18;101340.34;;;8.88;78.33
36222;BME280;22266;52.340;4.962;2023-04-06T13:19:45;101334.47;;;8.84;79.12
36222;BME280;22266;52.340;4.962;2023-04-06T13:22:11;101331.09;;;8.90;79.12
36222;BME280;22266;52.340;4.962;2023-04-06T13:24:38;101336.47;;;8.90;78.88